Time;durP1;ratioP1;P1;durP2;ratioP2;P2;SDS_P1;SDS_P2;PMS_P1;PMS_P2;Temp;Humidity;BMP_temperature;BMP_pressure;BME280_temperature;BME280_humidity;BME280_pressure;Samples;Min_cycle;Max_cycle;Signal;HPM_P1;HPM_P2
2023/03/22 00:00:55;;;;;;;11.13;6.37;;;8.50;82.40;;;6.78;70.38;100078.47;10236093;28;96770;-91
2023/03/22 00:05:58;;;;;;;8.43;6.30;;;8.40;82.70;;;6.69;70.99;100074.06;10273101;28;96670;-92
2023/03/22 00:11:02;;;;;;;14.00;7.13;;;8.30;84.40;;;6.56;71.83;100076.22;10219275;28;96439;-91
2023/03/22 00:16:06;;;;;;;10.63;7.87;;;8.20;84.20;;;6.43;71.66;100076.53;10253859;28;98480;-92
2023/03/22 00:21:16;;;;;;;10.20;7.30;;;8.10;84.60;;;6.30;72.13;100070.75;10232816;28;96470;-92
2023/03/22 00:26:19;;;;;;;11.90;7.90;;;8.00;85.00;;;6.14;72.73;100066.06;10287312;28;96377;-91
2023/03/22 00:31:22;;;;;;;15.33;9.37;;;7.80;85.60;;;6.03;73.03;100068.84;10257870;28;96906;-91
2023/03/22 00:36:26;;;;;;;10.80;6.70;;;7.70;86.00;;;5.96;73.93;100060.69;10259930;28;96881;-90
2023/03/22 00:41:29;;;;;;;11.33;7.47;;;7.70;87.00;;;5.94;74.11;100061.78;10265423;28;96605;-90
2023/03/22 00:46:32;;;;;;;10.53;7.57;;;7.60;87.40;;;5.89;74.04;100064.84;10260158;28;97583;-90
2023/03/22 00:51:35;;;;;;;10.17;7.67;;;7.60;87.70;;;5.84;74.67;100067.06;10265731;28;96685;-90
2023/03/22 00:56:38;;;;;;;10.10;7.17;;;7.50;88.60;;;5.71;75.76;100063.88;10251888;28;96579;-89
2023/03/22 01:01:42;;;;;;;10.50;7.43;;;7.40;89.90;;;5.58;76.40;100061.53;10260000;28;96767;-91
2023/03/22 01:06:46;;;;;;;8.27;5.97;;;7.20;90.30;;;5.45;76.59;100059.13;10279494;28;96519;-89
2023/03/22 01:11:48;;;;;;;11.23;6.70;;;7.10;90.60;;;5.33;76.70;100049.69;10282134;28;97209;-90
2023/03/22 01:16:56;;;;;;;10.10;7.67;;;7.00;90.80;;;5.21;77.58;100053.44;10254271;28;98606;-90
2023/03/22 01:21:59;;;;;;;10.60;6.77;;;6.90;91.40;;;5.15;77.82;100053.97;10252438;28;96462;-89
2023/03/22 01:27:02;;;;;;;12.10;8.80;;;6.80;91.70;;;5.12;78.46;100054.28;10235872;28;97761;-90
2023/03/22 01:32:05;;;;;;;11.50;8.50;;;6.80;92.20;;;5.05;78.95;100038.19;10263938;28;96675;-90
2023/03/22 01:37:09;;;;;;;10.27;7.20;;;6.70;92.50;;;5.02;79.08;100035.81;10277210;28;96595;-90
2023/03/22 01:42:14;;;;;;;11.07;8.23;;;6.70;92.90;;;4.94;79.77;100041.75;10244464;28;96876;-86
2023/03/22 01:47:17;;;;;;;9.90;6.87;;;6.60;93.50;;;4.86;79.78;100039.00;10241343;28;97500;-90
2023/03/22 01:52:20;;;;;;;14.60;8.17;;;6.50;94.20;;;4.76;80.28;100046.03;10252108;28;96490;-90
2023/03/22 01:57:24;;;;;;;9.87;7.00;;;6.40;94.20;;;4.71;80.61;100041.16;10251996;28;96533;-90
2023/03/22 02:02:29;;;;;;;8.67;5.73;;;6.40;94.70;;;4.70;80.61;100054.44;10225440;28;98013;-91
2023/03/22 02:07:32;;;;;;;10.07;7.40;;;6.40;95.00;;;4.63;80.85;100042.78;10267507;28;96930;-83
2023/03/22 02:13:12;;;;;;;9.20;6.63;;;6.30;95.30;;;4.67;81.77;100059.97;10245402;28;96786;-92
2023/03/22 02:18:43;;;;;;;11.30;7.10;;;6.30;95.90;;;4.75;83.30;100057.53;10273140;28;96795;-92
2023/03/22 02:24:05;;;;;;;8.43;5.93;;;6.40;97.40;;;4.87;83.20;100053.81;10266347;28;96581;-93
2023/03/22 02:29:28;;;;;;;9.93;6.27;;;6.50;97.50;;;5.01;83.53;100049.94;10260964;28;96557;-91
2023/03/22 02:35:28;;;;;;;12.60;8.40;;;6.60;98.00;;;5.18;84.25;100061.63;10236646;28;96585;-92
2023/03/22 02:40:56;;;;;;;11.03;7.20;;;6.70;98.80;;;5.32;84.69;100055.94;10163397;28;97626;-91
2023/03/22 02:46:29;;;;;;;11.17;7.70;;;6.80;99.10;;;5.42;84.31;100056.81;10235332;28;96639;-90
2023/03/22 02:51:51;;;;;;;8.83;5.90;;;6.90;99.60;;;5.58;84.23;100051.81;10265480;28;98037;-91
2023/03/22 02:57:23;;;;;;;9.73;6.97;;;7.10;99.60;;;5.77;84.33;100060.69;10258598;28;96546;-90
2023/03/22 03:02:29;;;;;;;12.30;7.93;;;7.30;99.90;;;5.87;83.90;100057.03;10208409;28;97900;-91
2023/03/22 03:07:33;;;;;;;11.70;7.70;;;7.40;99.90;;;5.95;83.86;100063.47;10266267;28;98529;-90
2023/03/22 03:12:36;;;;;;;9.33;7.27;;;7.50;99.90;;;6.01;83.85;100070.81;10219919;28;96621;-91
2023/03/22 03:18:06;;;;;;;10.97;7.70;;;7.50;99.90;;;6.10;83.52;100062.84;10220591;28;98085;-90
2023/03/22 03:23:59;;;;;;;11.27;7.30;;;7.60;99.90;;;6.19;83.23;100069.09;10222213;28;96530;-92
2023/03/22 03:29:08;;;;;;;8.53;6.27;;;7.70;99.90;;;6.25;83.49;100067.72;10255972;28;96702;-90
2023/03/22 03:34:27;;;;;;;9.67;7.17;;;7.70;99.90;;;6.40;83.96;100071.53;10282121;28;98284;-91
2023/03/22 03:39:34;;;;;;;10.80;7.10;;;7.80;99.90;;;6.49;83.79;100069.84;10249980;28;96699;-89
2023/03/22 03:44:38;;;;;;;8.50;5.97;;;7.90;99.90;;;6.60;84.43;100067.88;10260205;28;96974;-86
2023/03/22 03:49:41;;;;;;;10.93;7.07;;;8.00;99.90;;;6.68;83.69;100070.59;10220261;28;98484;-88
2023/03/22 03:54:44;;;;;;;10.63;6.53;;;8.10;99.90;;;6.64;83.01;100063.94;10232556;28;96422;-88
2023/03/22 03:59:47;;;;;;;11.50;7.30;;;8.20;99.90;;;6.59;82.60;100057.41;10234985;28;97412;-88
2023/03/22 04:04:50;;;;;;;10.50;7.43;;;8.10;99.90;;;6.41;82.13;100062.63;10231984;28;96691;-88
2023/03/22 04:09:53;;;;;;;10.67;7.77;;;8.00;99.90;;;6.23;82.13;100067.00;10231415;28;96657;-88
2023/03/22 04:14:58;;;;;;;10.67;7.13;;;7.80;99.90;;;6.09;83.09;100063.00;10245434;28;96606;-87
2023/03/22 04:20:03;;;;;;;10.83;8.37;;;7.70;99.90;;;6.07;83.37;100073.72;10244907;28;96623;-88
2023/03/22 04:25:13;;;;;;;11.20;7.80;;;7.60;99.90;;;6.03;83.68;100074.13;10278276;28;97862;-87
2023/03/22 04:30:18;;;;;;;10.53;7.27;;;7.60;99.90;;;5.99;84.16;100065.66;10264396;28;98363;-87
2023/03/22 04:35:22;;;;;;;12.30;8.00;;;7.60;99.90;;;5.98;84.33;100057.91;10292639;28;96464;-86
2023/03/22 04:40:27;;;;;;;10.93;8.10;;;7.50;99.90;;;5.94;83.97;100075.81;10236154;28;98238;-86
2023/03/22 04:45:31;;;;;;;14.30;10.80;;;7.50;99.90;;;5.85;84.03;100068.72;10239972;28;96711;-87
2023/03/22 04:50:34;;;;;;;12.27;8.27;;;7.50;99.90;;;5.80;84.36;100077.03;10255389;28;98304;-87
2023/03/22 04:55:37;;;;;;;13.43;9.10;;;7.40;99.90;;;5.73;85.01;100090.94;10235850;28;96683;-88
2023/03/22 05:00:40;;;;;;;17.57;12.40;;;7.30;99.90;;;5.73;85.62;100067.19;10233004;28;96629;-86
2023/03/22 05:05:56;;;;;;;17.07;11.47;;;7.30;99.90;;;5.75;85.85;100083.69;10225096;28;96643;-88
2023/03/22 05:11:10;;;;;;;9.53;6.90;;;7.30;99.90;;;5.72;86.04;100094.53;10207632;28;98662;-88
2023/03/22 05:16:13;;;;;;;73.53;33.67;;;7.20;99.90;;;5.71;86.11;100087.59;10219894;28;96560;-90
2023/03/22 05:21:20;;;;;;;24.57;14.73;;;7.20;99.90;;;5.75;86.67;100102.16;10237156;28;96581;-90
2023/03/22 05:26:25;;;;;;;16.83;10.47;;;7.30;99.90;;;5.80;86.81;100099.94;10252404;28;98495;-89
2023/03/22 05:31:33;;;;;;;19.93;14.10;;;7.30;99.90;;;5.91;86.75;100107.75;10236991;28;96617;-89
2023/03/22 05:36:36;;;;;;;19.53;11.93;;;7.40;99.90;;;6.06;86.81;100114.25;10233267;28;96650;-89
2023/03/22 05:41:39;;;;;;;14.03;8.27;;;7.50;99.90;;;6.16;86.69;100114.22;10234243;28;96428;-88
2023/03/22 05:46:42;;;;;;;11.37;7.10;;;7.60;99.90;;;6.28;86.26;100112.25;10238921;28;97674;-90
2023/03/22 05:51:45;;;;;;;10.97;7.97;;;7.70;99.90;;;6.39;85.81;100120.84;10239576;28;96531;-90
2023/03/22 05:56:48;;;;;;;13.37;8.83;;;7.80;99.90;;;6.54;85.57;100123.88;10253016;28;96588;-90
2023/03/22 06:01:51;;;;;;;13.83;9.47;;;7.90;99.90;;;6.73;84.83;100127.44;10250027;28;100003;-89
2023/03/22 06:06:55;;;;;;;11.03;8.47;;;8.10;99.90;;;6.93;83.98;100135.13;10234182;28;96712;-89
2023/03/22 06:11:58;;;;;;;12.73;8.20;;;8.30;99.90;;;7.17;83.67;100141.69;10255764;28;98840;-89
2023/03/22 06:17:01;;;;;;;10.67;7.30;;;8.40;99.90;;;7.38;81.99;100134.34;10240287;28;96542;-88
2023/03/22 06:22:07;;;;;;;15.17;8.83;;;8.60;99.90;;;7.64;81.72;100139.72;10249626;28;98591;-89
2023/03/22 06:27:10;;;;;;;15.10;7.73;;;8.80;99.90;;;7.94;80.64;100140.31;10229416;28;96777;-89
2023/03/22 06:32:15;;;;;;;17.83;9.97;;;9.10;99.90;;;8.28;79.50;100141.28;10234492;28;97660;-88
2023/03/22 06:37:19;;;;;;;14.23;8.20;;;9.40;99.90;;;8.64;78.49;100140.38;10203140;28;98725;-87
2023/03/22 06:42:22;;;;;;;19.47;9.43;;;9.80;99.90;;;9.02;76.90;100144.38;10252430;28;96669;-92
2023/03/22 06:47:25;;;;;;;18.73;8.13;;;10.10;99.90;;;9.28;74.84;100146.94;10271823;28;96579;-92
2023/03/22 06:52:29;;;;;;;13.77;7.50;;;10.50;99.90;;;9.54;73.63;100142.41;10245276;28;98426;-89
2023/03/22 06:57:32;;;;;;;14.50;8.10;;;10.70;99.90;;;9.75;72.49;100154.38;10238202;28;96650;-89
2023/03/22 07:02:35;;;;;;;13.43;7.87;;;11.00;99.90;;;9.99;71.08;100150.91;10254083;28;96601;-90
2023/03/22 07:07:38;;;;;;;11.90;7.57;;;11.20;99.30;;;10.25;70.66;100158.72;10240115;28;96536;-89
2023/03/22 07:12:41;;;;;;;12.80;6.90;;;11.50;98.60;;;10.56;69.66;100159.72;10274417;28;96546;-89
2023/03/22 07:17:45;;;;;;;10.80;8.17;;;11.70;98.20;;;10.98;69.38;100154.13;10274339;28;96492;-90
2023/03/22 07:22:50;;;;;;;14.17;9.43;;;12.10;98.00;;;11.34;67.23;100155.47;10265520;28;96620;-89
2023/03/22 07:27:55;;;;;;;15.40;9.13;;;12.50;97.20;;;11.66;66.49;100157.97;10261769;28;96968;-90
2023/03/22 07:33:00;;;;;;;13.67;8.87;;;12.80;96.50;;;12.12;65.94;100147.34;10274009;28;96560;-90
2023/03/22 07:38:04;;;;;;;12.57;8.23;;;13.20;96.10;;;12.55;63.90;100145.78;10256430;28;96590;-90
2023/03/22 07:43:10;;;;;;;12.73;8.03;;;13.60;95.30;;;12.92;63.46;100133.38;10274485;28;96568;-90
2023/03/22 07:48:14;;;;;;;14.88;8.23;;;14.00;94.50;;;13.27;61.94;100131.00;10254590;28;98438;-89
2023/03/22 07:53:18;;;;;;;22.40;12.13;;;14.30;93.90;;;13.54;61.22;100138.28;10224821;28;96689;-90
2023/03/22 07:58:21;;;;;;;16.38;10.10;;;14.60;93.20;;;13.77;59.98;100131.97;10177486;28;96646;-91
2023/03/22 08:03:25;;;;;;;11.95;9.63;;;14.90;92.10;;;14.05;59.64;100132.84;10248936;28;96553;-89
2023/03/22 08:08:28;;;;;;;12.43;8.38;;;15.10;91.90;;;14.32;57.50;100119.69;10284753;28;98513;-90
2023/03/22 08:13:32;;;;;;;9.52;7.20;;;15.30;90.50;;;14.59;55.81;100126.09;10270183;28;96457;-90
2023/03/22 08:18:35;;;;;;;13.55;8.65;;;15.60;89.30;;;14.69;55.17;100131.91;10268454;28;96785;-90
2023/03/22 08:23:38;;;;;;;8.57;6.90;;;15.70;87.20;;;14.71;54.74;100124.53;10276979;28;96572;-89
2023/03/22 08:28:44;;;;;;;8.77;7.07;;;15.80;86.10;;;14.56;53.99;100129.97;10253593;28;96490;-89
2023/03/22 08:33:48;;;;;;;9.38;7.78;;;15.80;84.20;;;14.58;53.67;100114.59;10260485;28;97057;-90
2023/03/22 08:38:53;;;;;;;10.57;7.53;;;15.80;83.30;;;14.57;53.40;100123.59;10232283;28;96648;-90
2023/03/22 08:43:56;;;;;;;8.50;6.97;;;15.80;82.50;;;14.57;52.95;100134.28;10231917;28;96567;-90
2023/03/22 08:49:01;;;;;;;10.35;7.95;;;15.90;81.80;;;14.77;53.62;100136.31;10252926;28;98575;-90
2023/03/22 08:54:04;;;;;;;13.98;8.63;;;16.00;81.40;;;14.98;52.77;100134.34;10232098;28;96463;-90
2023/03/22 08:59:09;;;;;;;11.13;7.60;;;16.20;81.00;;;15.09;52.01;100127.59;10260062;28;98205;-90
2023/03/22 09:04:12;;;;;;;14.73;9.00;;;16.30;79.60;;;15.21;51.91;100131.38;10252861;28;96518;-91
2023/03/22 09:09:15;;;;;;;16.77;8.68;;;16.40;79.40;;;15.40;52.04;100128.97;10273875;28;96464;-90
2023/03/22 09:14:18;;;;;;;13.23;8.27;;;16.50;79.40;;;15.45;50.92;100129.19;10292067;28;96623;-90
2023/03/22 09:19:21;;;;;;;15.55;9.00;;;16.60;78.00;;;15.26;50.97;100123.56;10250056;28;96622;-91
2023/03/22 09:24:24;;;;;;;11.88;8.65;;;16.40;77.80;;;15.09;51.56;100121.44;10294655;28;96313;-91
2023/03/22 09:29:27;;;;;;;15.30;10.70;;;16.30;77.80;;;15.15;51.81;100118.78;10259514;28;97620;-91
2023/03/22 09:34:30;;;;;;;10.60;7.78;;;16.20;77.80;;;15.19;51.00;100111.19;10237329;28;97308;-91
2023/03/22 09:39:37;;;;;;;10.70;7.97;;;16.40;76.90;;;15.24;51.39;100114.09;10279021;28;96409;-91
2023/03/22 09:44:43;;;;;;;15.05;8.70;;;16.40;76.80;;;15.11;51.35;100109.50;10295670;28;96529;-91
2023/03/22 09:49:51;;;;;;;12.88;7.25;;;16.30;76.50;;;14.97;51.54;100108.63;10264836;28;96541;-90
2023/03/22 09:54:57;;;;;;;15.23;8.20;;;16.30;76.30;;;14.80;52.19;100111.81;10270196;28;96559;-90
2023/03/22 10:00:36;;;;;;;11.07;7.50;;;16.10;76.50;;;14.70;52.17;100107.66;10243358;28;96960;-91
2023/03/22 10:06:19;;;;;;;14.13;7.28;;;15.90;76.50;;;14.63;52.48;100114.81;10243521;28;96727;-90
2023/03/22 10:11:22;;;;;;;10.07;7.30;;;15.80;76.50;;;14.55;53.03;100101.59;10238683;28;97341;-90
2023/03/22 10:16:32;;;;;;;8.50;6.50;;;15.70;77.10;;;14.48;52.73;100106.06;10314826;28;96520;-91
2023/03/22 10:21:36;;;;;;;13.07;6.78;;;15.70;77.10;;;14.41;53.13;100102.50;10292286;28;97396;-90
2023/03/22 10:26:44;;;;;;;14.32;6.35;;;15.60;77.20;;;14.39;53.68;100102.72;10282465;28;96822;-90
2023/03/22 10:31:47;;;;;;;10.18;6.18;;;15.60;77.80;;;14.39;53.54;100102.72;10293489;28;98715;-91
2023/03/22 10:36:52;;;;;;;8.48;5.97;;;15.60;77.70;;;14.29;53.13;100112.09;10300343;28;96459;-90
2023/03/22 10:41:59;;;;;;;8.43;6.03;;;15.60;77.30;;;14.35;53.26;100103.28;10291774;28;96455;-90
2023/03/22 10:47:06;;;;;;;8.05;7.10;;;15.60;77.30;;;14.38;53.17;100092.19;10289489;28;97323;-91
2023/03/22 10:52:25;;;;;;;8.63;5.95;;;15.60;77.00;;;14.56;53.12;100086.38;10220061;28;96614;-91
2023/03/22 10:57:29;;;;;;;8.73;6.55;;;15.80;77.00;;;14.56;52.51;100097.06;10203452;28;96508;-90
2023/03/22 11:02:32;;;;;;;10.20;5.20;;;15.90;76.70;;;14.85;52.44;100090.66;10219159;28;96617;-91
2023/03/22 11:07:44;;;;;;;9.40;7.05;;;16.10;76.50;;;14.93;51.48;100087.78;10245918;28;96679;-90
2023/03/22 11:13:06;;;;;;;7.15;5.35;;;16.30;75.50;;;15.32;51.22;100081.78;10241014;28;96425;-91
2023/03/22 11:18:14;;;;;;;7.05;5.22;;;16.50;75.40;;;15.71;50.19;100051.63;10227883;28;97965;-90
2023/03/22 11:23:20;;;;;;;8.23;5.10;;;16.90;74.70;;;16.15;49.95;100047.50;10224412;28;97347;-90
2023/03/22 11:28:39;;;;;;;6.80;5.40;;;17.30;74.10;;;16.65;47.66;100053.16;10235746;28;96998;-91
2023/03/22 11:33:56;;;;;;;9.52;6.22;;;17.80;73.00;;;17.13;46.89;100034.81;10273146;28;97201;-90
2023/03/22 11:39:06;;;;;;;6.80;4.55;;;18.40;71.40;;;17.81;46.02;100028.00;10257145;28;96688;-90
2023/03/22 11:44:20;;;;;;;4.97;3.90;;;19.00;69.90;;;17.98;42.96;100022.91;10258405;28;96695;-91
2023/03/22 11:49:35;;;;;;;6.60;4.03;;;19.50;65.80;;;18.28;42.58;100015.78;10274175;28;96766;-91
2023/03/22 11:54:41;;;;;;;4.78;3.50;;;19.70;65.00;;;18.25;41.46;100008.19;10246497;28;97345;-90
2023/03/22 12:00:10;;;;;;;4.00;2.95;;;19.70;63.00;;;18.27;40.13;100010.63;10243530;28;96859;-90
2023/03/22 12:05:28;;;;;;;4.55;3.40;;;19.60;62.30;;;18.31;40.37;100004.59;10245545;28;96579;-91
2023/03/22 12:10:47;;;;;;;5.75;2.70;;;19.70;61.50;;;18.55;39.29;100007.44;10240645;28;96714;-90
2023/03/22 12:15:57;;;;;;;4.32;2.35;;;19.70;60.40;;;18.38;39.41;100009.91;10249608;28;96717;-90
2023/03/22 12:21:01;;;;;;;3.95;2.55;;;19.70;59.30;;;18.36;38.99;100001.25;10237418;28;97267;-90
2023/03/22 12:26:23;;;;;;;3.53;2.50;;;19.70;58.70;;;18.09;39.10;100009.56;10249213;28;96670;-91
2023/03/22 12:31:43;;;;;;;5.65;3.50;;;19.50;58.30;;;17.82;39.28;100006.31;10208933;28;96603;-90
2023/03/22 12:36:56;;;;;;;3.73;3.03;;;19.30;58.30;;;17.56;40.42;100001.91;10215800;28;96903;-90
2023/03/22 12:42:33;;;;;;;6.18;4.15;;;19.10;58.70;;;17.49;39.96;100011.06;10264106;28;96609;-90
2023/03/22 12:47:47;;;;;;;5.72;3.50;;;18.90;59.00;;;17.33;40.83;100005.19;10261009;28;96545;-90
2023/03/22 12:52:53;;;;;;;5.00;3.75;;;18.80;59.20;;;17.17;40.79;99996.81;10277774;28;97190;-90
2023/03/22 12:57:59;;;;;;;10.75;3.97;;;18.60;59.30;;;17.36;41.91;99996.69;10235940;28;96681;-90
2023/03/22 13:03:37;;;;;;;5.97;3.35;;;18.60;60.10;;;17.74;41.26;99990.44;10243997;28;97331;-90
2023/03/22 13:09:08;;;;;;;7.00;3.55;;;19.00;59.50;;;17.83;39.26;99975.69;10200625;28;96898;-90
2023/03/22 13:14:47;;;;;;;5.72;3.92;;;19.20;58.50;;;17.53;40.19;99972.81;10259794;28;96696;-90
2023/03/22 13:19:59;;;;;;;8.90;3.70;;;19.00;58.40;;;17.67;40.30;99965.47;10257720;28;97738;-90
2023/03/22 13:25:27;;;;;;;4.85;2.72;;;19.10;58.50;;;18.04;39.97;99965.56;10278115;28;96372;-90
2023/03/22 13:30:56;;;;;;;4.25;2.90;;;19.30;58.50;;;18.08;39.92;99958.69;10244928;28;96617;-90
2023/03/22 13:36:23;;;;;;;4.60;3.00;;;19.40;58.20;;;18.23;39.23;99951.06;10235799;28;96698;-90
2023/03/22 13:41:30;;;;;;;3.15;2.45;;;19.60;57.70;;;18.33;38.56;99943.31;10285264;28;96435;-90
2023/03/22 13:46:36;;;;;;;4.43;2.60;;;19.60;57.20;;;18.31;38.78;99937.34;10258379;28;96587;-90
2023/03/22 13:51:41;;;;;;;3.58;2.53;;;19.60;56.80;;;18.35;38.83;99935.88;10241981;28;96615;-90
2023/03/22 13:56:58;;;;;;;4.15;2.17;;;19.70;56.70;;;18.51;38.12;99933.59;10277951;28;96444;-90
2023/03/22 14:02:23;;;;;;;3.97;1.83;;;19.70;56.40;;;18.52;38.63;99935.22;10275322;28;96567;-91
2023/03/22 14:07:55;;;;;;;3.58;1.80;;;19.80;56.80;;;18.17;37.14;99938.53;10278586;28;96572;-91
2023/03/22 14:13:32;;;;;;;3.22;1.33;;;19.60;55.30;;;18.03;36.80;99931.66;10223422;28;97185;-90
2023/03/22 14:18:40;;;;;;;2.70;1.33;;;19.40;55.10;;;17.85;37.59;99922.53;10209858;28;96434;-90
2023/03/22 14:23:51;;;;;;;5.43;3.20;;;19.20;55.40;;;17.60;37.49;99914.47;10287610;28;96519;-89
2023/03/22 14:28:53;;;;;;;8.23;3.28;;;19.00;55.20;;;17.51;38.43;99917.63;10258849;28;98652;-90
2023/03/22 14:34:04;;;;;;;4.38;1.77;;;18.80;55.70;;;17.48;37.90;99910.03;10244834;28;96714;-91
2023/03/22 14:39:21;;;;;;;5.05;3.00;;;18.80;55.50;;;17.51;38.13;99912.25;10267545;28;96568;-89
2023/03/22 14:44:30;;;;;;;3.08;1.95;;;18.80;55.60;;;17.47;37.37;99911.91;10251511;28;96531;-89
2023/03/22 14:49:39;;;;;;;3.85;1.80;;;18.80;55.20;;;17.47;37.88;99909.22;10231966;28;97699;-89
2023/03/22 14:54:46;;;;;;;2.67;1.80;;;18.80;55.20;;;17.59;37.62;99903.94;10228247;28;96788;-90
2023/03/22 14:59:49;;;;;;;3.28;2.00;;;18.90;55.10;;;17.76;37.87;99910.44;10225290;28;97456;-89
2023/03/22 15:04:52;;;;;;;5.38;3.47;;;19.00;55.30;;;17.83;37.97;99895.06;10220730;28;97352;-90
2023/03/22 15:10:14;;;;;;;4.57;2.90;;;19.10;55.20;;;17.53;37.45;99896.78;10226684;28;97537;-89
2023/03/22 15:15:19;;;;;;;9.05;3.78;;;19.00;54.70;;;17.48;38.25;99894.72;10212486;28;96606;-87
2023/03/22 15:20:36;;;;;;;5.80;3.13;;;18.80;55.30;;;17.27;38.58;99890.59;10213112;28;96964;-87
2023/03/22 15:25:38;;;;;;;4.07;3.05;;;18.70;55.40;;;17.30;39.16;99894.69;10230537;28;97096;-90
2023/03/22 15:30:50;;;;;;;5.63;4.43;;;18.70;55.80;;;17.65;39.66;99882.38;10239497;28;98211;-91
2023/03/22 15:35:55;;;;;;;6.28;4.80;;;19.10;56.10;;;17.98;39.39;99880.41;10216043;28;96595;-87
2023/03/22 15:40:58;;;;;;;5.60;4.13;;;19.50;56.00;;;18.52;38.91;99871.47;10212178;28;96665;-86
2023/03/22 15:46:14;;;;;;;6.38;4.63;;;20.20;55.70;;;19.01;38.12;99866.03;10217406;28;96583;-87
2023/03/22 15:51:20;;;;;;;6.25;4.50;;;20.80;54.50;;;19.24;36.82;99866.06;10271434;28;96521;-86
2023/03/22 15:56:29;;;;;;;6.88;4.70;;;21.20;53.70;;;18.97;37.21;99863.81;10262690;28;96741;-88
2023/03/22 16:01:44;;;;;;;5.63;3.75;;;21.10;52.80;;;18.82;36.81;99866.13;10258737;28;96596;-86
2023/03/22 16:06:47;;;;;;;10.63;7.03;;;20.70;52.90;;;18.41;37.05;99872.22;10255452;28;96799;-88
2023/03/22 16:11:50;;;;;;;19.98;12.50;;;20.10;53.20;;;17.96;38.48;99877.13;10234412;28;96591;-88
2023/03/22 16:16:52;;;;;;;13.20;8.38;;;19.50;54.20;;;17.45;39.45;99875.53;10235702;28;96870;-88
2023/03/22 16:21:54;;;;;;;9.48;5.55;;;19.00;55.40;;;16.96;40.35;99872.63;10221826;28;96614;-88
2023/03/22 16:26:55;;;;;;;8.43;5.88;;;18.40;56.30;;;16.45;41.67;99870.84;10267936;28;98433;-90
2023/03/22 16:31:57;;;;;;;9.93;6.60;;;17.90;57.30;;;16.05;42.87;99880.91;10257226;28;97861;-90
2023/03/22 16:37:12;;;;;;;14.27;8.63;;;17.50;58.30;;;15.62;44.06;99886.78;10263800;28;96908;-90
2023/03/22 16:42:17;;;;;;;14.88;10.68;;;17.10;59.10;;;15.21;44.93;99898.50;10212886;28;97009;-91
2023/03/22 16:47:25;;;;;;;11.75;8.20;;;16.70;59.70;;;14.83;45.95;99898.25;10263195;28;96693;-90
2023/03/22 16:52:27;;;;;;;16.15;10.48;;;16.30;60.60;;;14.44;47.16;99909.59;10257524;28;98550;-89
2023/03/22 16:57:29;;;;;;;19.25;7.53;;;15.90;61.40;;;14.05;48.18;99907.59;10244929;28;96847;-90
2023/03/22 17:02:35;;;;;;;15.37;8.13;;;15.60;62.50;;;13.67;49.58;99897.28;10238478;28;97504;-89
2023/03/22 17:07:37;;;;;;;12.53;7.27;;;15.20;63.40;;;13.35;50.10;99898.69;10266594;28;97003;-89
2023/03/22 17:12:41;;;;;;;15.97;7.90;;;14.90;64.20;;;13.02;51.20;99899.22;10230227;28;97511;-88
2023/03/22 17:17:42;;;;;;;29.67;15.60;;;14.60;65.00;;;12.74;51.71;99908.97;10224825;28;97889;-88
2023/03/22 17:22:44;;;;;;;27.73;17.77;;;14.30;65.70;;;12.45;52.72;99912.53;10248004;28;96674;-85
2023/03/22 17:27:46;;;;;;;21.20;11.63;;;14.00;66.20;;;12.22;53.65;99915.31;10267044;28;97462;-85
2023/03/22 17:32:49;;;;;;;12.33;7.60;;;13.80;66.90;;;12.03;54.42;99909.53;10250321;28;96693;-86
2023/03/22 17:37:52;;;;;;;12.77;6.33;;;13.60;67.80;;;11.88;54.97;99916.72;10220740;28;96885;-86
2023/03/22 17:42:54;;;;;;;10.50;5.70;;;13.40;68.30;;;11.71;55.10;99918.69;10232444;28;96671;-86
2023/03/22 17:47:57;;;;;;;10.73;4.60;;;13.30;68.90;;;11.53;55.77;99931.50;10253403;28;96515;-86
2023/03/22 17:53:01;;;;;;;8.07;4.60;;;13.10;69.30;;;11.34;56.29;99938.16;10271963;28;96724;-86
2023/03/22 17:58:03;;;;;;;11.27;4.90;;;12.90;69.80;;;11.18;56.93;99943.59;10271318;28;98374;-86
2023/03/22 18:03:05;;;;;;;8.10;4.53;;;12.80;70.50;;;10.95;57.73;99943.59;10242054;28;96599;-86
2023/03/22 18:08:06;;;;;;;13.17;6.80;;;12.60;71.10;;;10.77;58.87;99949.19;10269243;28;97666;-86
2023/03/22 18:13:10;;;;;;;10.30;5.20;;;12.40;72.10;;;10.58;59.32;99957.59;10250424;28;96599;-85
2023/03/22 18:18:11;;;;;;;13.13;5.87;;;12.20;72.70;;;10.42;60.48;99961.97;10220615;28;96611;-86
2023/03/22 18:23:13;;;;;;;13.37;7.27;;;12.00;73.50;;;10.30;60.85;99963.34;10250680;28;96705;-85
2023/03/22 18:28:15;;;;;;;8.60;5.03;;;11.90;74.20;;;10.22;61.60;99965.19;10220009;28;96998;-86
2023/03/22 18:33:18;;;;;;;8.33;5.23;;;11.80;74.90;;;10.09;61.75;99977.19;10234263;28;96834;-86
2023/03/22 18:38:21;;;;;;;16.37;8.80;;;11.60;75.00;;;9.91;61.87;99980.03;10253101;28;96698;-86
2023/03/22 18:43:23;;;;;;;15.03;8.00;;;11.50;75.50;;;9.72;61.93;99968.97;10247969;28;98388;-86
2023/03/22 18:48:26;;;;;;;13.00;8.37;;;11.40;76.00;;;9.52;62.10;99974.59;10241632;28;96456;-86
2023/03/22 18:53:29;;;;;;;19.73;8.13;;;11.20;76.40;;;9.35;62.97;99981.72;10249937;28;98252;-85
2023/03/22 18:58:31;;;;;;;13.47;7.33;;;11.00;77.10;;;9.19;64.28;99983.56;10219765;28;96611;-85
2023/03/22 19:03:34;;;;;;;23.90;10.30;;;10.80;78.10;;;9.02;64.79;99983.53;10230746;28;96621;-85
2023/03/22 19:08:37;;;;;;;21.77;8.90;;;10.70;78.50;;;8.91;65.56;99988.28;10234025;28;97660;-85
2023/03/22 19:13:39;;;;;;;12.50;6.53;;;10.60;79.10;;;8.80;66.36;99978.81;10241899;28;96503;-85
2023/03/22 19:18:43;;;;;;;14.13;7.53;;;10.40;79.60;;;8.68;66.67;99980.94;10248511;28;96568;-85
2023/03/22 19:23:45;;;;;;;23.97;11.70;;;10.30;80.00;;;8.56;67.13;99984.88;10217916;28;96834;-89
2023/03/22 19:28:47;;;;;;;18.70;10.83;;;10.20;80.60;;;8.43;66.94;99979.19;10231288;28;96471;-89
2023/03/22 19:33:52;;;;;;;29.57;15.53;;;10.10;80.70;;;8.30;67.57;99977.78;10209040;28;96612;-90
2023/03/22 19:38:56;;;;;;;26.73;13.83;;;10.00;81.20;;;8.18;68.00;99976.41;10223581;28;96810;-89
2023/03/22 19:43:58;;;;;;;25.07;13.80;;;9.80;81.70;;;8.08;68.67;99974.84;10236935;28;98056;-88
2023/03/22 19:49:01;;;;;;;23.73;11.47;;;9.70;82.30;;;7.93;68.72;99964.03;10223305;28;97269;-89
2023/03/22 19:54:03;;;;;;;17.07;9.20;;;9.60;82.60;;;7.88;69.16;99974.25;10246469;28;96534;-88
2023/03/22 19:59:08;;;;;;;18.47;8.27;;;9.50;83.30;;;7.78;70.35;99969.06;10219974;28;96609;-88
2023/03/22 20:04:10;;;;;;;15.43;7.97;;;9.40;83.90;;;7.69;70.76;99968.19;10223228;28;96601;-89
2023/03/22 20:09:12;;;;;;;14.40;8.13;;;9.30;84.50;;;7.62;71.37;99955.75;10237290;28;98616;-89
2023/03/22 20:14:15;;;;;;;16.07;9.83;;;9.30;85.60;;;7.53;71.58;99957.47;10252367;28;96521;-88
2023/03/22 20:19:17;;;;;;;18.40;9.13;;;9.20;85.80;;;7.49;71.96;99959.59;10249558;28;96460;-93
2023/03/22 20:24:20;;;;;;;21.30;9.77;;;9.10;86.50;;;7.43;72.35;99962.03;10225434;28;96914;-87
2023/03/22 20:29:23;;;;;;;20.80;10.00;;;9.10;87.00;;;7.41;72.56;99966.63;10214527;28;96579;-92
2023/03/22 20:34:26;;;;;;;19.20;10.33;;;9.00;87.50;;;7.37;72.59;99967.91;10219166;28;96559;-85
2023/03/22 20:39:28;;;;;;;19.77;9.37;;;9.00;87.90;;;7.34;72.93;99968.25;10229436;28;96655;-87
2023/03/22 20:44:30;;;;;;;15.60;8.17;;;9.00;88.30;;;7.30;72.87;99978.28;10228684;28;96572;-87
2023/03/22 20:49:32;;;;;;;16.40;8.53;;;8.90;88.50;;;7.28;72.97;99979.44;10221029;28;96497;-87
2023/03/22 20:54:34;;;;;;;13.20;7.00;;;8.90;88.80;;;7.20;72.82;99977.53;10215007;28;96603;-87
2023/03/22 20:59:36;;;;;;;12.50;7.33;;;8.80;89.00;;;7.09;73.21;99978.59;10225839;28;96829;-85
2023/03/22 21:04:39;;;;;;;11.60;6.83;;;8.80;89.50;;;7.00;73.83;99973.38;10261004;28;96646;-85
2023/03/22 21:09:41;;;;;;;10.17;5.97;;;8.70;90.10;;;6.94;74.35;99969.53;10233404;28;96621;-85
2023/03/22 21:14:43;;;;;;;9.70;6.30;;;8.60;90.30;;;6.90;74.60;99973.47;10260940;28;96991;-85